createdAt,value
2023-10-03T00:02:43.813Z,39.58375
2023-10-03T00:07:46.456Z,32.94695
2023-10-03T00:12:47.859Z,30.1026
2023-10-03T00:17:49.513Z,28.91745
2023-10-03T00:22:50.924Z,27.199
2023-10-03T00:27:52.385Z,21.8066
2023-10-03T00:32:53.976Z,18.54745
2023-10-03T00:37:55.516Z,15.0513
2023-10-03T00:42:57.476Z,10.66625
2023-10-03T00:47:58.927Z,8.35525
2023-10-03T00:53:00.348Z,7.04525
2023-10-03T00:58:01.777Z,4.91835
2023-10-03T01:03:03.502Z,4.148
2023-10-03T01:08:05.943Z,3.37765
2023-10-03T01:13:07.692Z,2.54805
2023-10-03T01:18:09.252Z,1.7152
2023-10-03T01:23:10.815Z,2.50815
2023-10-03T01:28:12.213Z,0.47405
2023-10-03T01:33:13.741Z,0.4148
2023-10-03T01:38:15.323Z,0
2023-10-03T01:43:16.966Z,0
2023-10-03T01:48:18.529Z,0
2023-10-03T01:53:20.128Z,0
2023-10-03T01:58:21.602Z,0
2023-10-03T02:03:23.106Z,0
2023-10-03T02:08:24.846Z,0
2023-10-03T02:13:26.360Z,0
2023-10-03T02:18:27.889Z,0
2023-10-03T02:23:29.476Z,0
2023-10-03T02:28:32.176Z,0
2023-10-03T02:33:35.702Z,0
2023-10-03T02:38:37.399Z,0
2023-10-03T02:43:38.988Z,0
2023-10-03T02:48:40.561Z,0
2023-10-03T02:53:42.079Z,0
2023-10-03T02:58:43.558Z,0
2023-10-03T03:03:45.044Z,0
2023-10-03T03:08:46.861Z,0
2023-10-03T03:13:48.452Z,0
2023-10-03T03:18:49.815Z,0
2023-10-03T03:23:51.251Z,0
2023-10-03T03:28:52.839Z,0
2023-10-03T03:33:54.867Z,0
2023-10-03T03:38:56.498Z,0
2023-10-03T03:43:57.997Z,0
2023-10-03T03:48:59.708Z,0
2023-10-03T03:54:01.413Z,0
2023-10-03T03:59:03.177Z,0
2023-10-03T04:04:04.831Z,0
2023-10-03T04:09:09.216Z,0
2023-10-03T04:14:11.348Z,0
2023-10-03T04:19:12.833Z,0
2023-10-03T04:24:14.329Z,0
2023-10-03T04:29:16.780Z,0
2023-10-03T04:34:18.419Z,0
2023-10-03T04:39:19.976Z,0
2023-10-03T04:44:21.377Z,0
2023-10-03T04:49:22.790Z,0
2023-10-03T04:54:24.416Z,0
2023-10-03T04:59:25.934Z,0
2023-10-03T05:04:27.353Z,0
2023-10-03T05:09:28.765Z,0
2023-10-03T05:14:30.468Z,0
2023-10-03T05:19:31.919Z,0
2023-10-03T05:24:33.294Z,0
2023-10-03T05:29:34.913Z,0
2023-10-03T05:34:36.331Z,0
2023-10-03T05:39:37.710Z,0
2023-10-03T05:44:39.137Z,0
2023-10-03T05:49:41.185Z,0
2023-10-03T05:54:42.609Z,0
2023-10-03T05:59:44.056Z,0
2023-10-03T06:04:45.919Z,0
2023-10-03T06:09:47.326Z,0
2023-10-03T06:14:48.958Z,0
2023-10-03T06:19:50.394Z,0
2023-10-03T06:24:51.785Z,0
2023-10-03T06:29:53.211Z,0
2023-10-03T06:34:54.669Z,0
2023-10-03T06:39:56.039Z,0
2023-10-03T06:44:57.464Z,0
2023-10-03T06:49:58.868Z,0
2023-10-03T06:55:00.318Z,0
2023-10-03T07:00:01.990Z,0
2023-10-03T07:05:03.668Z,0
2023-10-03T07:10:05.463Z,0
2023-10-03T07:15:06.852Z,0
2023-10-03T07:20:08.488Z,0
2023-10-03T07:25:09.875Z,0
2023-10-03T07:30:11.733Z,0
2023-10-03T07:35:13.333Z,0
2023-10-03T07:40:14.844Z,0
2023-10-03T07:45:16.237Z,0
2023-10-03T07:50:17.625Z,0
2023-10-03T07:55:19.096Z,0
2023-10-03T08:00:21.281Z,0
2023-10-03T08:05:22.750Z,0
2023-10-03T08:10:24.173Z,0
2023-10-03T08:15:25.792Z,0
2023-10-03T08:20:28.046Z,0
2023-10-03T08:25:29.544Z,0
2023-10-03T08:30:31.230Z,0
2023-10-03T08:35:32.979Z,0
2023-10-03T08:40:34.512Z,0
2023-10-03T08:45:36.086Z,0
2023-10-03T08:50:37.694Z,0
2023-10-03T08:55:39.655Z,0
2023-10-03T09:00:41.344Z,0
2023-10-03T09:05:42.981Z,0
2023-10-03T09:10:44.568Z,0
2023-10-03T09:15:45.992Z,0
2023-10-03T09:20:47.473Z,0
2023-10-03T09:25:48.905Z,0
2023-10-03T09:30:50.293Z,0
2023-10-03T09:35:51.715Z,0
2023-10-03T09:40:53.126Z,0
2023-10-03T09:45:54.831Z,0
2023-10-03T09:50:56.866Z,0
2023-10-03T09:55:58.290Z,0
2023-10-03T10:00:59.774Z,0
2023-10-03T10:06:01.530Z,0
2023-10-03T10:11:03.265Z,0
2023-10-03T10:16:04.900Z,0
2023-10-03T10:21:07.005Z,0
2023-10-03T10:26:08.361Z,0
2023-10-03T10:31:09.809Z,0
2023-10-03T10:36:11.280Z,0
2023-10-03T10:41:12.666Z,0
2023-10-03T10:46:14.153Z,0
2023-10-03T10:51:15.612Z,0
2023-10-03T10:56:17.306Z,0
2023-10-03T11:01:18.970Z,0
2023-10-03T11:06:20.355Z,0
2023-10-03T11:11:21.914Z,0
2023-10-03T11:16:23.332Z,0
2023-10-03T11:21:24.773Z,0
2023-10-03T11:26:26.174Z,0
2023-10-03T11:31:27.648Z,0
2023-10-03T11:36:29.095Z,0
2023-10-03T11:41:30.553Z,0
2023-10-03T11:46:32.097Z,0
2023-10-03T11:51:33.521Z,0
2023-10-03T11:56:35.120Z,0
2023-10-03T12:01:36.710Z,0
2023-10-03T12:06:38.425Z,0
2023-10-03T12:11:39.813Z,0
2023-10-03T12:16:41.164Z,0
2023-10-03T12:21:42.619Z,0
2023-10-03T12:26:44.050Z,0
2023-10-03T12:31:45.618Z,0
2023-10-03T12:36:47.141Z,0
2023-10-03T12:41:48.673Z,0
2023-10-03T12:46:50.086Z,0
2023-10-03T12:51:51.535Z,0
2023-10-03T12:56:52.914Z,0
2023-10-03T13:01:54.360Z,0
2023-10-03T13:06:55.840Z,0
2023-10-03T13:11:57.321Z,0
2023-10-03T13:16:58.812Z,0
2023-10-03T13:22:00.453Z,0
2023-10-03T13:27:02.131Z,0
2023-10-03T13:32:03.786Z,0
2023-10-03T13:37:05.330Z,0
2023-10-03T13:42:06.948Z,0.5333
2023-10-03T13:47:08.425Z,1.53075
2023-10-03T13:52:09.858Z,0.9481
2023-10-03T13:57:11.429Z,2.87705
2023-10-03T14:02:13.164Z,2.4888
2023-10-03T14:07:14.712Z,3.79245
2023-10-03T14:12:16.282Z,4.9776
2023-10-03T14:17:17.806Z,7.9997
2023-10-03T14:22:19.230Z,8.1182
2023-10-03T14:27:20.906Z,8.533
2023-10-03T14:32:22.421Z,7.7627
2023-10-03T14:37:23.853Z,12.08845
2023-10-03T14:42:25.299Z,14.8735
2023-10-03T14:47:26.740Z,19.96965
2023-10-03T14:52:28.304Z,23.4658
2023-10-03T14:57:29.806Z,27.199
2023-10-03T15:02:31.370Z,32.1766
2023-10-03T15:07:32.955Z,40.35405
2023-10-03T15:12:34.367Z,48.41305
2023-10-03T15:17:35.817Z,48.7093
2023-10-03T15:22:37.448Z,44.9169
2023-10-03T15:27:38.981Z,55.70165
2023-10-03T15:32:40.819Z,55.0499
2023-10-03T15:37:42.485Z,72.76785
2023-10-03T15:42:43.992Z,90.24865
2023-10-03T15:47:45.691Z,116.4404
2023-10-03T15:52:47.174Z,110.3963
2023-10-03T15:57:48.687Z,123.31425
2023-10-03T16:02:50.228Z,148.5579
2023-10-03T16:07:51.716Z,155.01705
2023-10-03T16:12:53.299Z,142.57305
2023-10-03T16:17:55.213Z,224.3566
2023-10-03T16:22:56.684Z,345.26685
2023-10-03T16:27:58.451Z,588.2413
2023-10-03T16:33:00.193Z,704.5699
2023-10-03T16:38:01.645Z,181.09025
2023-10-03T16:43:03.104Z,125.5975
2023-10-03T16:48:04.659Z,529.7013
2023-10-03T16:53:06.073Z,923.43755
2023-10-03T16:58:07.465Z,195.7344
2023-10-03T17:03:09.229Z,487.6279
2023-10-03T17:08:10.820Z,368.9543
2023-10-03T17:13:12.338Z,386.89085
2023-10-03T17:18:14.106Z,636.0079
2023-10-03T17:23:15.723Z,654.85145
2023-10-03T17:28:17.484Z,726.55315
2023-10-03T17:33:19.004Z,801.09895
2023-10-03T17:38:20.526Z,841.57125
2023-10-03T17:43:21.890Z,452.6666
2023-10-03T17:48:23.657Z,246.5819
2023-10-03T17:53:25.133Z,356.40985
2023-10-03T17:58:26.626Z,723.88605
2023-10-03T18:03:28.185Z,693.60535
2023-10-03T18:08:29.637Z,714.5819
2023-10-03T18:13:31.003Z,743.97265
2023-10-03T18:18:32.560Z,338.24015
2023-10-03T18:23:34.255Z,483.4196
2023-10-03T18:28:35.735Z,299.42675
2023-10-03T18:33:37.108Z,293.3231
2023-10-03T18:38:38.771Z,242.3027
2023-10-03T18:43:40.218Z,216.9406
2023-10-03T18:48:42.144Z,221.68105
2023-10-03T18:53:43.617Z,223.518
2023-10-03T18:58:45.103Z,223.8735
2023-10-03T19:03:46.667Z,214.9257
2023-10-03T19:08:48.345Z,200.40795
2023-10-03T19:13:49.738Z,348.0172
2023-10-03T19:18:51.142Z,736.4464
2023-10-03T19:23:52.641Z,225.5926
2023-10-03T19:28:54.235Z,268.37615
2023-10-03T19:33:56.519Z,659.53095
2023-10-03T19:38:58.004Z,487.1529
2023-10-03T19:43:59.400Z,283.4869
2023-10-03T19:49:00.911Z,594.76315
2023-10-03T19:54:02.389Z,595.415
2023-10-03T19:59:03.946Z,606.1998
2023-10-03T20:04:05.461Z,618.8808
2023-10-03T20:09:07.200Z,614.9105
2023-10-03T20:14:08.794Z,605.6071
2023-10-03T20:19:10.402Z,169.93225
2023-10-03T20:24:11.906Z,192.0111
2023-10-03T20:29:13.721Z,459.47995
2023-10-03T20:34:16.052Z,582.5565
2023-10-03T20:39:17.577Z,479.4493
2023-10-03T20:44:21.553Z,541.1358
2023-10-03T20:49:23.124Z,415.74815
2023-10-03T20:54:24.601Z,180.5715
2023-10-03T20:59:26.015Z,512.51475
2023-10-03T21:04:27.434Z,495.5673
2023-10-03T21:09:28.808Z,480.69375
2023-10-03T21:14:30.385Z,464.5165
2023-10-03T21:19:31.850Z,445.9099
2023-10-03T21:24:33.370Z,453.1392
2023-10-03T21:29:34.817Z,455.68735
2023-10-03T21:34:36.350Z,400.8152
2023-10-03T21:39:37.867Z,418.41455
2023-10-03T21:44:39.497Z,429.02155
2023-10-03T21:49:40.840Z,428.48845
2023-10-03T21:54:42.308Z,436.42905
2023-10-03T21:59:43.768Z,441.9994
2023-10-03T22:04:45.137Z,444.9029
2023-10-03T22:09:46.497Z,454.97665
2023-10-03T22:14:48.173Z,467.12435
2023-10-03T22:19:49.637Z,414.7414
2023-10-03T22:24:51.091Z,478.08695
2023-10-03T22:29:52.535Z,324.67035
2023-10-03T22:34:54.113Z,208.5857
2023-10-03T22:39:55.486Z,198.6899
2023-10-03T22:44:56.949Z,472.10175
2023-10-03T22:49:58.364Z,466.82785
2023-10-03T22:55:00.383Z,457.5837
2023-10-03T23:00:01.818Z,449.52465
2023-10-03T23:05:03.293Z,439.03605
2023-10-03T23:10:04.774Z,421.08115
2023-10-03T23:15:06.121Z,404.78535
2023-10-03T23:20:07.512Z,393.23
2023-10-03T23:25:08.926Z,381.4969
2023-10-03T23:30:10.366Z,355.6607
2023-10-03T23:35:12.131Z,312.5808
2023-10-03T23:40:13.569Z,272.04905
2023-10-03T23:45:15.227Z,206.57
2023-10-03T23:50:16.674Z,95.7004
2023-10-03T23:55:18.265Z,74.368
